sensor_id;sensor_type;location;lat;lon;timestamp;P1;durP1;ratioP1;P2;durP2;ratioP2
53714;SDS011;39608;55.630;37.864;2023-09-12T00:03:44;14.52;;;9.32;;
53714;SDS011;39608;55.630;37.864;2023-09-12T00:08:48;18.48;;;10.40;;
53714;SDS011;39608;55.630;37.864;2023-09-12T00:13:49;18.00;;;9.00;;
53714;SDS011;39608;55.630;37.864;2023-09-12T00:18:51;18.33;;;10.43;;
53714;SDS011;39608;55.630;37.864;2023-09-12T00:23:56;16.98;;;10.32;;
53714;SDS011;39608;55.630;37.864;2023-09-12T00:28:58;21.02;;;10.80;;
53714;SDS011;39608;55.630;37.864;2023-09-12T00:34:00;20.70;;;10.70;;
53714;SDS011;39608;55.630;37.864;2023-09-12T00:39:11;16.40;;;10.07;;
53714;SDS011;39608;55.630;37.864;2023-09-12T00:44:13;21.35;;;9.98;;
53714;SDS011;39608;55.630;37.864;2023-09-12T00:49:15;25.83;;;10.70;;
53714;SDS011;39608;55.630;37.864;2023-09-12T00:54:20;16.95;;;9.93;;
53714;SDS011;39608;55.630;37.864;2023-09-12T00:59:22;20.92;;;10.23;;
53714;SDS011;39608;55.630;37.864;2023-09-12T01:04:24;21.75;;;10.65;;
53714;SDS011;39608;55.630;37.864;2023-09-12T01:09:28;24.85;;;12.48;;
53714;SDS011;39608;55.630;37.864;2023-09-12T01:14:30;20.50;;;10.25;;
53714;SDS011;39608;55.630;37.864;2023-09-12T01:19:35;18.58;;;10.10;;
53714;SDS011;39608;55.630;37.864;2023-09-12T01:25:00;17.25;;;9.52;;
53714;SDS011;39608;55.630;37.864;2023-09-12T01:30:28;22.30;;;10.25;;
53714;SDS011;39608;55.630;37.864;2023-09-12T01:35:32;15.90;;;8.50;;
53714;SDS011;39608;55.630;37.864;2023-09-12T01:40:37;16.80;;;9.63;;
53714;SDS011;39608;55.630;37.864;2023-09-12T01:45:45;19.27;;;9.52;;
53714;SDS011;39608;55.630;37.864;2023-09-12T01:50:49;23.65;;;9.52;;
53714;SDS011;39608;55.630;37.864;2023-09-12T01:55:52;17.52;;;8.57;;
53714;SDS011;39608;55.630;37.864;2023-09-12T02:01:00;17.52;;;9.32;;
53714;SDS011;39608;55.630;37.864;2023-09-12T02:06:02;18.38;;;9.32;;
53714;SDS011;39608;55.630;37.864;2023-09-12T02:11:04;17.63;;;8.70;;
53714;SDS011;39608;55.630;37.864;2023-09-12T02:16:09;16.70;;;9.45;;
53714;SDS011;39608;55.630;37.864;2023-09-12T02:21:12;21.30;;;9.93;;
53714;SDS011;39608;55.630;37.864;2023-09-12T02:26:14;18.42;;;9.07;;
53714;SDS011;39608;55.630;37.864;2023-09-12T02:31:18;14.35;;;8.65;;
53714;SDS011;39608;55.630;37.864;2023-09-12T02:36:21;16.20;;;8.80;;
53714;SDS011;39608;55.630;37.864;2023-09-12T02:41:23;19.13;;;9.57;;
53714;SDS011;39608;55.630;37.864;2023-09-12T02:46:27;18.27;;;9.25;;
53714;SDS011;39608;55.630;37.864;2023-09-12T02:51:31;14.52;;;8.77;;
53714;SDS011;39608;55.630;37.864;2023-09-12T02:56:33;13.55;;;8.80;;
53714;SDS011;39608;55.630;37.864;2023-09-12T03:01:38;17.63;;;9.25;;
53714;SDS011;39608;55.630;37.864;2023-09-12T03:06:40;20.60;;;8.80;;
53714;SDS011;39608;55.630;37.864;2023-09-12T03:11:42;15.65;;;9.15;;
53714;SDS011;39608;55.630;37.864;2023-09-12T03:16:48;20.70;;;9.10;;
53714;SDS011;39608;55.630;37.864;2023-09-12T03:21:50;20.52;;;9.95;;
53714;SDS011;39608;55.630;37.864;2023-09-12T03:26:52;17.55;;;9.68;;
53714;SDS011;39608;55.630;37.864;2023-09-12T03:31:55;21.95;;;9.90;;
53714;SDS011;39608;55.630;37.864;2023-09-12T03:36:58;22.30;;;10.35;;
53714;SDS011;39608;55.630;37.864;2023-09-12T03:42:04;14.82;;;8.98;;
53714;SDS011;39608;55.630;37.864;2023-09-12T03:47:07;15.60;;;9.32;;
53714;SDS011;39608;55.630;37.864;2023-09-12T03:52:09;22.35;;;8.82;;
53714;SDS011;39608;55.630;37.864;2023-09-12T03:57:14;19.15;;;8.88;;
53714;SDS011;39608;55.630;37.864;2023-09-12T04:02:17;16.75;;;8.48;;
53714;SDS011;39608;55.630;37.864;2023-09-12T04:07:20;20.40;;;9.13;;
53714;SDS011;39608;55.630;37.864;2023-09-12T04:12:22;18.33;;;9.15;;
53714;SDS011;39608;55.630;37.864;2023-09-12T04:17:25;15.88;;;8.45;;
53714;SDS011;39608;55.630;37.864;2023-09-12T04:22:27;18.15;;;9.25;;
53714;SDS011;39608;55.630;37.864;2023-09-12T04:27:29;16.55;;;9.10;;
53714;SDS011;39608;55.630;37.864;2023-09-12T04:32:33;15.43;;;7.65;;
53714;SDS011;39608;55.630;37.864;2023-09-12T04:37:39;16.65;;;8.93;;
53714;SDS011;39608;55.630;37.864;2023-09-12T04:42:41;15.90;;;8.75;;
53714;SDS011;39608;55.630;37.864;2023-09-12T04:47:45;14.40;;;8.70;;
53714;SDS011;39608;55.630;37.864;2023-09-12T04:52:47;17.70;;;9.50;;
53714;SDS011;39608;55.630;37.864;2023-09-12T04:57:49;17.73;;;9.07;;
53714;SDS011;39608;55.630;37.864;2023-09-12T05:02:53;14.63;;;8.90;;
53714;SDS011;39608;55.630;37.864;2023-09-12T05:07:55;17.38;;;9.48;;
53714;SDS011;39608;55.630;37.864;2023-09-12T05:12:57;16.50;;;8.93;;
53714;SDS011;39608;55.630;37.864;2023-09-12T05:18:03;15.52;;;8.77;;
53714;SDS011;39608;55.630;37.864;2023-09-12T05:23:07;15.32;;;9.02;;
53714;SDS011;39608;55.630;37.864;2023-09-12T05:28:09;15.70;;;9.57;;
53714;SDS011;39608;55.630;37.864;2023-09-12T05:33:12;19.63;;;10.38;;
53714;SDS011;39608;55.630;37.864;2023-09-12T05:38:17;26.15;;;11.55;;
53714;SDS011;39608;55.630;37.864;2023-09-12T05:43:19;19.60;;;13.00;;
53714;SDS011;39608;55.630;37.864;2023-09-12T05:48:22;18.30;;;13.95;;
53714;SDS011;39608;55.630;37.864;2023-09-12T05:53:24;22.70;;;13.10;;
53714;SDS011;39608;55.630;37.864;2023-09-12T05:58:27;30.00;;;13.73;;
53714;SDS011;39608;55.630;37.864;2023-09-12T06:03:31;20.00;;;14.98;;
53714;SDS011;39608;55.630;37.864;2023-09-12T06:08:33;24.45;;;15.85;;
53714;SDS011;39608;55.630;37.864;2023-09-12T06:13:35;23.52;;;14.77;;
53714;SDS011;39608;55.630;37.864;2023-09-12T06:18:39;20.65;;;13.02;;
53714;SDS011;39608;55.630;37.864;2023-09-12T06:23:41;21.77;;;12.02;;
53714;SDS011;39608;55.630;37.864;2023-09-12T06:28:43;16.08;;;10.20;;
53714;SDS011;39608;55.630;37.864;2023-09-12T06:33:49;12.23;;;8.77;;
53714;SDS011;39608;55.630;37.864;2023-09-12T06:38:51;21.80;;;9.10;;
53714;SDS011;39608;55.630;37.864;2023-09-12T06:43:53;15.88;;;8.82;;
53714;SDS011;39608;55.630;37.864;2023-09-12T06:48:58;15.38;;;8.52;;
53714;SDS011;39608;55.630;37.864;2023-09-12T06:54:00;11.35;;;8.25;;
53714;SDS011;39608;55.630;37.864;2023-09-12T06:59:03;14.43;;;8.77;;
53714;SDS011;39608;55.630;37.864;2023-09-12T07:04:07;15.25;;;9.23;;
53714;SDS011;39608;55.630;37.864;2023-09-12T07:09:09;15.02;;;8.38;;
53714;SDS011;39608;55.630;37.864;2023-09-12T07:14:17;13.88;;;8.85;;
53714;SDS011;39608;55.630;37.864;2023-09-12T07:19:24;15.05;;;9.75;;
53714;SDS011;39608;55.630;37.864;2023-09-12T07:24:26;12.43;;;9.07;;
53714;SDS011;39608;55.630;37.864;2023-09-12T07:29:29;16.30;;;9.35;;
53714;SDS011;39608;55.630;37.864;2023-09-12T07:39:45;15.85;;;8.65;;
53714;SDS011;39608;55.630;37.864;2023-09-12T07:44:47;13.00;;;9.07;;
53714;SDS011;39608;55.630;37.864;2023-09-12T07:49:54;13.60;;;9.05;;
53714;SDS011;39608;55.630;37.864;2023-09-12T07:54:58;13.95;;;8.52;;
53714;SDS011;39608;55.630;37.864;2023-09-12T08:00:01;14.90;;;8.80;;
53714;SDS011;39608;55.630;37.864;2023-09-12T08:05:07;12.68;;;9.57;;
53714;SDS011;39608;55.630;37.864;2023-09-12T08:10:10;13.93;;;10.05;;
53714;SDS011;39608;55.630;37.864;2023-09-12T08:15:15;17.48;;;10.63;;
53714;SDS011;39608;55.630;37.864;2023-09-12T08:20:19;18.73;;;10.35;;
53714;SDS011;39608;55.630;37.864;2023-09-12T08:25:21;11.32;;;8.98;;
53714;SDS011;39608;55.630;37.864;2023-09-12T08:30:25;15.90;;;9.40;;
53714;SDS011;39608;55.630;37.864;2023-09-12T08:35:32;14.55;;;9.27;;
53714;SDS011;39608;55.630;37.864;2023-09-12T08:40:34;11.52;;;9.75;;
53714;SDS011;39608;55.630;37.864;2023-09-12T08:45:36;15.70;;;9.50;;
53714;SDS011;39608;55.630;37.864;2023-09-12T08:50:42;12.57;;;8.88;;
53714;SDS011;39608;55.630;37.864;2023-09-12T08:55:49;14.00;;;8.48;;
53714;SDS011;39608;55.630;37.864;2023-09-12T09:00:53;16.05;;;9.20;;
53714;SDS011;39608;55.630;37.864;2023-09-12T09:05:59;12.30;;;8.43;;
53714;SDS011;39608;55.630;37.864;2023-09-12T09:11:04;10.65;;;8.07;;
53714;SDS011;39608;55.630;37.864;2023-09-12T09:16:10;13.57;;;9.68;;
53714;SDS011;39608;55.630;37.864;2023-09-12T09:21:18;11.82;;;9.18;;
53714;SDS011;39608;55.630;37.864;2023-09-12T09:26:24;12.20;;;8.50;;
53714;SDS011;39608;55.630;37.864;2023-09-12T09:31:26;15.50;;;8.80;;
53714;SDS011;39608;55.630;37.864;2023-09-12T09:36:30;15.63;;;8.05;;
53714;SDS011;39608;55.630;37.864;2023-09-12T09:41:33;10.98;;;7.95;;
53714;SDS011;39608;55.630;37.864;2023-09-12T09:46:40;11.90;;;7.97;;
53714;SDS011;39608;55.630;37.864;2023-09-12T09:51:46;13.45;;;6.90;;
53714;SDS011;39608;55.630;37.864;2023-09-12T09:56:49;10.88;;;6.72;;
53714;SDS011;39608;55.630;37.864;2023-09-12T10:01:55;14.05;;;6.25;;
53714;SDS011;39608;55.630;37.864;2023-09-12T10:07:00;16.00;;;7.13;;
53714;SDS011;39608;55.630;37.864;2023-09-12T10:12:02;8.50;;;6.00;;
53714;SDS011;39608;55.630;37.864;2023-09-12T10:17:05;8.88;;;6.00;;
53714;SDS011;39608;55.630;37.864;2023-09-12T10:22:17;10.45;;;5.43;;
53714;SDS011;39608;55.630;37.864;2023-09-12T10:27:24;5.50;;;4.47;;
53714;SDS011;39608;55.630;37.864;2023-09-12T10:32:27;9.48;;;5.53;;
53714;SDS011;39608;55.630;37.864;2023-09-12T10:37:35;6.72;;;4.93;;
53714;SDS011;39608;55.630;37.864;2023-09-12T10:42:39;12.45;;;4.78;;
53714;SDS011;39608;55.630;37.864;2023-09-12T10:47:42;5.72;;;4.88;;
53714;SDS011;39608;55.630;37.864;2023-09-12T10:52:47;7.82;;;4.00;;
53714;SDS011;39608;55.630;37.864;2023-09-12T10:58:02;6.37;;;4.70;;
53714;SDS011;39608;55.630;37.864;2023-09-12T11:08:41;8.13;;;3.90;;
53714;SDS011;39608;55.630;37.864;2023-09-12T11:13:43;8.35;;;4.13;;
53714;SDS011;39608;55.630;37.864;2023-09-12T11:24:18;4.97;;;3.92;;
53714;SDS011;39608;55.630;37.864;2023-09-12T11:29:21;4.68;;;3.65;;
53714;SDS011;39608;55.630;37.864;2023-09-12T11:34:24;5.50;;;3.85;;
53714;SDS011;39608;55.630;37.864;2023-09-12T11:39:30;10.55;;;4.68;;
53714;SDS011;39608;55.630;37.864;2023-09-12T11:44:32;9.90;;;4.90;;
53714;SDS011;39608;55.630;37.864;2023-09-12T11:49:35;7.38;;;4.57;;
53714;SDS011;39608;55.630;37.864;2023-09-12T11:54:39;6.63;;;4.65;;
53714;SDS011;39608;55.630;37.864;2023-09-12T11:59:44;10.50;;;4.50;;
53714;SDS011;39608;55.630;37.864;2023-09-12T12:04:49;18.52;;;4.90;;
53714;SDS011;39608;55.630;37.864;2023-09-12T12:09:55;6.18;;;4.45;;
53714;SDS011;39608;55.630;37.864;2023-09-12T12:14:57;6.13;;;4.03;;
53714;SDS011;39608;55.630;37.864;2023-09-12T12:19:59;5.35;;;3.60;;
53714;SDS011;39608;55.630;37.864;2023-09-12T12:25:08;9.80;;;4.10;;
53714;SDS011;39608;55.630;37.864;2023-09-12T12:30:12;10.23;;;4.40;;
53714;SDS011;39608;55.630;37.864;2023-09-12T12:35:18;11.82;;;4.22;;
53714;SDS011;39608;55.630;37.864;2023-09-12T12:45:25;10.07;;;4.18;;
53714;SDS011;39608;55.630;37.864;2023-09-12T12:50:27;11.07;;;4.05;;
53714;SDS011;39608;55.630;37.864;2023-09-12T12:55:30;7.70;;;4.03;;
53714;SDS011;39608;55.630;37.864;2023-09-12T13:00:36;6.10;;;3.30;;
53714;SDS011;39608;55.630;37.864;2023-09-12T13:05:40;10.98;;;4.78;;
53714;SDS011;39608;55.630;37.864;2023-09-12T13:10:44;7.55;;;4.45;;
53714;SDS011;39608;55.630;37.864;2023-09-12T13:15:46;10.82;;;3.90;;
53714;SDS011;39608;55.630;37.864;2023-09-12T13:20:50;10.43;;;3.57;;
53714;SDS011;39608;55.630;37.864;2023-09-12T13:25:54;3.80;;;3.50;;
53714;SDS011;39608;55.630;37.864;2023-09-12T13:30:56;7.13;;;4.40;;
53714;SDS011;39608;55.630;37.864;2023-09-12T13:35:59;5.72;;;3.80;;
53714;SDS011;39608;55.630;37.864;2023-09-12T13:41:09;8.00;;;3.53;;
53714;SDS011;39608;55.630;37.864;2023-09-12T13:46:11;9.15;;;3.70;;
53714;SDS011;39608;55.630;37.864;2023-09-12T13:51:13;6.25;;;4.32;;
53714;SDS011;39608;55.630;37.864;2023-09-12T13:56:19;3.88;;;3.03;;
53714;SDS011;39608;55.630;37.864;2023-09-12T14:01:22;11.38;;;3.72;;
53714;SDS011;39608;55.630;37.864;2023-09-12T14:06:24;9.57;;;4.32;;
53714;SDS011;39608;55.630;37.864;2023-09-12T14:11:27;7.70;;;4.07;;
53714;SDS011;39608;55.630;37.864;2023-09-12T14:16:29;6.88;;;3.70;;
53714;SDS011;39608;55.630;37.864;2023-09-12T14:21:34;6.88;;;3.88;;
53714;SDS011;39608;55.630;37.864;2023-09-12T14:26:37;5.00;;;3.92;;
53714;SDS011;39608;55.630;37.864;2023-09-12T14:31:39;11.40;;;4.80;;
53714;SDS011;39608;55.630;37.864;2023-09-12T14:36:49;5.85;;;3.83;;
53714;SDS011;39608;55.630;37.864;2023-09-12T14:41:53;7.38;;;3.80;;
53714;SDS011;39608;55.630;37.864;2023-09-12T14:46:55;11.77;;;4.95;;
53714;SDS011;39608;55.630;37.864;2023-09-12T14:51:57;13.57;;;5.13;;
53714;SDS011;39608;55.630;37.864;2023-09-12T14:57:00;10.18;;;5.65;;
53714;SDS011;39608;55.630;37.864;2023-09-12T15:02:02;6.78;;;4.65;;
53714;SDS011;39608;55.630;37.864;2023-09-12T15:07:05;8.63;;;4.10;;
53714;SDS011;39608;55.630;37.864;2023-09-12T15:12:08;7.20;;;4.70;;
53714;SDS011;39608;55.630;37.864;2023-09-12T15:17:10;10.32;;;4.30;;
53714;SDS011;39608;55.630;37.864;2023-09-12T15:22:13;15.35;;;4.50;;
53714;SDS011;39608;55.630;37.864;2023-09-12T15:27:16;13.50;;;4.82;;
53714;SDS011;39608;55.630;37.864;2023-09-12T15:32:19;14.38;;;5.30;;
53714;SDS011;39608;55.630;37.864;2023-09-12T15:37:21;10.05;;;5.25;;
53714;SDS011;39608;55.630;37.864;2023-09-12T15:42:25;11.45;;;5.32;;
53714;SDS011;39608;55.630;37.864;2023-09-12T15:47:27;15.57;;;5.13;;
53714;SDS011;39608;55.630;37.864;2023-09-12T15:52:29;12.68;;;5.82;;
53714;SDS011;39608;55.630;37.864;2023-09-12T15:57:40;15.18;;;5.40;;
53714;SDS011;39608;55.630;37.864;2023-09-12T16:02:42;20.83;;;5.97;;
53714;SDS011;39608;55.630;37.864;2023-09-12T16:07:44;10.57;;;4.70;;
53714;SDS011;39608;55.630;37.864;2023-09-12T16:12:48;16.95;;;5.60;;
53714;SDS011;39608;55.630;37.864;2023-09-12T16:17:53;7.47;;;3.93;;
53714;SDS011;39608;55.630;37.864;2023-09-12T16:22:55;8.23;;;4.32;;
53714;SDS011;39608;55.630;37.864;2023-09-12T16:27:58;10.50;;;4.43;;
53714;SDS011;39608;55.630;37.864;2023-09-12T16:33:00;11.63;;;4.70;;
53714;SDS011;39608;55.630;37.864;2023-09-12T16:38:03;8.27;;;4.57;;
53714;SDS011;39608;55.630;37.864;2023-09-12T16:43:06;9.32;;;4.82;;
53714;SDS011;39608;55.630;37.864;2023-09-12T16:48:09;10.25;;;4.20;;
53714;SDS011;39608;55.630;37.864;2023-09-12T16:53:11;11.60;;;4.10;;
53714;SDS011;39608;55.630;37.864;2023-09-12T16:58:14;11.20;;;4.72;;
53714;SDS011;39608;55.630;37.864;2023-09-12T17:03:16;16.48;;;4.97;;
53714;SDS011;39608;55.630;37.864;2023-09-12T17:08:18;9.00;;;4.20;;
53714;SDS011;39608;55.630;37.864;2023-09-12T17:13:21;7.00;;;4.07;;
53714;SDS011;39608;55.630;37.864;2023-09-12T17:18:24;8.35;;;6.05;;
53714;SDS011;39608;55.630;37.864;2023-09-12T17:23:27;9.32;;;5.07;;
53714;SDS011;39608;55.630;37.864;2023-09-12T17:28:30;11.95;;;5.75;;
53714;SDS011;39608;55.630;37.864;2023-09-12T17:33:32;6.68;;;4.43;;
53714;SDS011;39608;55.630;37.864;2023-09-12T17:38:35;17.30;;;4.95;;
53714;SDS011;39608;55.630;37.864;2023-09-12T17:43:39;8.45;;;4.60;;
53714;SDS011;39608;55.630;37.864;2023-09-12T17:48:41;10.95;;;5.05;;
53714;SDS011;39608;55.630;37.864;2023-09-12T17:53:43;11.48;;;4.68;;
53714;SDS011;39608;55.630;37.864;2023-09-12T17:58:48;9.73;;;4.70;;
53714;SDS011;39608;55.630;37.864;2023-09-12T18:03:51;15.43;;;5.65;;
53714;SDS011;39608;55.630;37.864;2023-09-12T18:08:53;18.45;;;6.50;;
53714;SDS011;39608;55.630;37.864;2023-09-12T18:13:57;10.82;;;6.22;;
53714;SDS011;39608;55.630;37.864;2023-09-12T18:18:59;18.08;;;6.20;;
53714;SDS011;39608;55.630;37.864;2023-09-12T18:24:02;8.82;;;5.18;;
53714;SDS011;39608;55.630;37.864;2023-09-12T18:29:07;10.07;;;5.20;;
53714;SDS011;39608;55.630;37.864;2023-09-12T18:34:09;12.27;;;4.88;;
53714;SDS011;39608;55.630;37.864;2023-09-12T18:39:11;13.73;;;4.65;;
53714;SDS011;39608;55.630;37.864;2023-09-12T18:44:15;11.55;;;4.90;;
53714;SDS011;39608;55.630;37.864;2023-09-12T18:49:17;7.95;;;4.72;;
53714;SDS011;39608;55.630;37.864;2023-09-12T18:54:20;9.48;;;5.05;;
53714;SDS011;39608;55.630;37.864;2023-09-12T18:59:28;10.20;;;4.40;;
53714;SDS011;39608;55.630;37.864;2023-09-12T19:04:30;6.70;;;4.13;;
53714;SDS011;39608;55.630;37.864;2023-09-12T19:09:33;8.10;;;3.78;;
53714;SDS011;39608;55.630;37.864;2023-09-12T19:14:37;7.63;;;3.50;;
53714;SDS011;39608;55.630;37.864;2023-09-12T19:19:39;6.43;;;3.70;;
53714;SDS011;39608;55.630;37.864;2023-09-12T19:24:41;4.82;;;3.67;;
53714;SDS011;39608;55.630;37.864;2023-09-12T19:29:48;6.25;;;3.60;;
53714;SDS011;39608;55.630;37.864;2023-09-12T19:34:50;6.53;;;4.05;;
53714;SDS011;39608;55.630;37.864;2023-09-12T19:39:55;8.20;;;4.18;;
53714;SDS011;39608;55.630;37.864;2023-09-12T19:44:59;8.35;;;4.25;;
53714;SDS011;39608;55.630;37.864;2023-09-12T19:50:01;9.43;;;4.78;;
53714;SDS011;39608;55.630;37.864;2023-09-12T19:55:08;7.53;;;5.03;;
53714;SDS011;39608;55.630;37.864;2023-09-12T20:00:13;6.40;;;4.05;;
53714;SDS011;39608;55.630;37.864;2023-09-12T20:05:15;12.45;;;4.13;;
53714;SDS011;39608;55.630;37.864;2023-09-12T20:10:24;7.53;;;4.75;;
53714;SDS011;39608;55.630;37.864;2023-09-12T20:15:33;6.85;;;4.20;;
53714;SDS011;39608;55.630;37.864;2023-09-12T20:20:36;16.42;;;5.43;;
53714;SDS011;39608;55.630;37.864;2023-09-12T20:25:39;8.73;;;4.85;;
53714;SDS011;39608;55.630;37.864;2023-09-12T20:30:42;13.10;;;5.30;;
53714;SDS011;39608;55.630;37.864;2023-09-12T20:35:44;8.50;;;4.57;;
53714;SDS011;39608;55.630;37.864;2023-09-12T20:40:47;10.15;;;5.38;;
53714;SDS011;39608;55.630;37.864;2023-09-12T20:45:52;15.10;;;4.82;;
53714;SDS011;39608;55.630;37.864;2023-09-12T20:50:57;18.25;;;5.22;;
53714;SDS011;39608;55.630;37.864;2023-09-12T20:55:59;7.72;;;4.22;;
53714;SDS011;39608;55.630;37.864;2023-09-12T21:01:03;7.47;;;4.60;;
53714;SDS011;39608;55.630;37.864;2023-09-12T21:06:04;12.05;;;4.25;;
53714;SDS011;39608;55.630;37.864;2023-09-12T21:11:10;9.32;;;5.00;;
53714;SDS011;39608;55.630;37.864;2023-09-12T21:16:14;6.93;;;5.10;;
53714;SDS011;39608;55.630;37.864;2023-09-12T21:21:16;11.52;;;5.05;;
53714;SDS011;39608;55.630;37.864;2023-09-12T21:26:17;12.57;;;6.03;;
53714;SDS011;39608;55.630;37.864;2023-09-12T21:31:27;11.50;;;5.97;;
53714;SDS011;39608;55.630;37.864;2023-09-12T21:36:29;9.80;;;6.63;;
53714;SDS011;39608;55.630;37.864;2023-09-12T21:41:31;11.70;;;6.55;;
53714;SDS011;39608;55.630;37.864;2023-09-12T21:46:35;11.15;;;6.18;;
53714;SDS011;39608;55.630;37.864;2023-09-12T21:51:40;23.35;;;6.78;;
53714;SDS011;39608;55.630;37.864;2023-09-12T21:56:42;17.35;;;6.88;;
53714;SDS011;39608;55.630;37.864;2023-09-12T22:01:45;10.27;;;6.35;;
53714;SDS011;39608;55.630;37.864;2023-09-12T22:06:47;10.95;;;5.50;;
53714;SDS011;39608;55.630;37.864;2023-09-12T22:11:52;13.68;;;4.93;;
53714;SDS011;39608;55.630;37.864;2023-09-12T22:16:55;11.40;;;4.70;;
53714;SDS011;39608;55.630;37.864;2023-09-12T22:21:57;14.15;;;5.20;;
53714;SDS011;39608;55.630;37.864;2023-09-12T22:26:59;14.38;;;4.65;;
53714;SDS011;39608;55.630;37.864;2023-09-12T22:32:06;13.05;;;5.18;;
53714;SDS011;39608;55.630;37.864;2023-09-12T22:37:09;10.95;;;4.93;;
53714;SDS011;39608;55.630;37.864;2023-09-12T22:42:11;9.18;;;4.80;;
53714;SDS011;39608;55.630;37.864;2023-09-12T22:47:18;25.70;;;5.18;;
53714;SDS011;39608;55.630;37.864;2023-09-12T22:52:20;9.38;;;4.50;;
53714;SDS011;39608;55.630;37.864;2023-09-12T22:57:25;9.63;;;4.70;;
53714;SDS011;39608;55.630;37.864;2023-09-12T23:02:29;11.88;;;4.95;;
53714;SDS011;39608;55.630;37.864;2023-09-12T23:07:37;13.00;;;5.03;;
53714;SDS011;39608;55.630;37.864;2023-09-12T23:12:39;12.90;;;5.82;;
53714;SDS011;39608;55.630;37.864;2023-09-12T23:17:43;15.73;;;6.05;;
53714;SDS011;39608;55.630;37.864;2023-09-12T23:22:45;11.02;;;6.20;;
53714;SDS011;39608;55.630;37.864;2023-09-12T23:27:54;14.15;;;6.32;;
53714;SDS011;39608;55.630;37.864;2023-09-12T23:32:58;14.82;;;6.00;;
53714;SDS011;39608;55.630;37.864;2023-09-12T23:38:00;21.98;;;6.88;;
53714;SDS011;39608;55.630;37.864;2023-09-12T23:43:02;12.73;;;5.35;;
53714;SDS011;39608;55.630;37.864;2023-09-12T23:48:06;9.70;;;5.78;;
53714;SDS011;39608;55.630;37.864;2023-09-12T23:53:08;11.98;;;6.97;;
53714;SDS011;39608;55.630;37.864;2023-09-12T23:58:10;13.57;;;6.55;;
